createdAt,value
2023-09-25T00:08:09.295Z,10.57
2023-09-25T00:10:37.134Z,10.51
2023-09-25T00:13:03.739Z,10.40
2023-09-25T00:15:30.182Z,10.43
2023-09-25T00:17:58.428Z,10.42
2023-09-25T00:20:25.642Z,10.35
2023-09-25T00:22:56.844Z,10.33
2023-09-25T00:25:26.229Z,10.24
2023-09-25T00:27:52.754Z,10.16
2023-09-25T00:30:19.608Z,10.04
2023-09-25T00:32:46.359Z,10.01
2023-09-25T00:35:13.240Z,9.99
2023-09-25T00:37:40.870Z,9.96
2023-09-25T00:40:14.627Z,9.94
2023-09-25T00:42:42.902Z,9.93
2023-09-25T00:45:10.995Z,9.88
2023-09-25T00:47:38.827Z,9.87
2023-09-25T00:50:06.925Z,9.93
2023-09-25T00:52:35.431Z,9.78
2023-09-25T00:55:02.468Z,9.72
2023-09-25T00:57:29.483Z,9.63
2023-09-25T00:59:56.750Z,9.58
2023-09-25T01:02:23.673Z,9.54
2023-09-25T01:04:50.254Z,9.51
2023-09-25T01:07:20.127Z,9.49
2023-09-25T01:10:06.285Z,9.43
2023-09-25T01:12:33.803Z,9.44
2023-09-25T01:15:00.286Z,9.44
2023-09-25T01:17:26.892Z,9.36
2023-09-25T01:19:54.082Z,9.31
2023-09-25T01:22:20.452Z,9.24
2023-09-25T01:24:46.934Z,9.20
2023-09-25T01:27:13.704Z,9.20
2023-09-25T01:29:40.115Z,9.17
2023-09-25T01:32:06.562Z,9.15
2023-09-25T01:34:32.935Z,9.21
2023-09-25T01:36:59.397Z,9.22
2023-09-25T01:39:25.838Z,9.19
2023-09-25T01:41:52.287Z,9.09
2023-09-25T01:44:18.667Z,9.09
2023-09-25T01:46:45.048Z,9.04
2023-09-25T01:49:11.469Z,8.94
2023-09-25T01:51:37.976Z,8.96
2023-09-25T01:54:05.208Z,8.93
2023-09-25T01:56:31.630Z,9.02
2023-09-25T01:58:57.983Z,9.10
2023-09-25T02:01:24.382Z,9.12
2023-09-25T02:03:51.619Z,9.16
2023-09-25T02:06:18.168Z,9.17
2023-09-25T02:08:44.613Z,9.05
2023-09-25T02:11:10.983Z,9.07
2023-09-25T02:13:37.320Z,9.09
2023-09-25T02:16:03.944Z,9.04
2023-09-25T02:18:31.017Z,9.00
2023-09-25T02:20:57.568Z,8.93
2023-09-25T02:23:23.925Z,8.90
2023-09-25T02:25:50.382Z,8.88
2023-09-25T02:28:16.804Z,8.89
2023-09-25T02:30:43.221Z,8.92
2023-09-25T02:33:10.999Z,8.92
2023-09-25T02:35:38.087Z,9.02
2023-09-25T02:38:06.075Z,9.01
2023-09-25T02:40:32.970Z,8.98
2023-09-25T02:42:59.442Z,8.99
2023-09-25T02:45:25.842Z,8.99
2023-09-25T02:47:52.328Z,9.02
2023-09-25T02:50:18.872Z,8.97
2023-09-25T02:52:45.422Z,9.00
2023-09-25T02:55:12.972Z,9.04
2023-09-25T02:57:39.366Z,9.05
2023-09-25T03:00:11.827Z,9.04
2023-09-25T03:02:38.989Z,9.00
2023-09-25T03:05:08.924Z,9.06
2023-09-25T03:07:35.382Z,9.10
2023-09-25T03:10:01.939Z,9.05
2023-09-25T03:12:29.672Z,8.98
2023-09-25T03:14:56.113Z,8.93
2023-09-25T03:17:22.484Z,8.80
2023-09-25T03:19:51.864Z,8.71
2023-09-25T03:22:18.424Z,8.64
2023-09-25T03:24:44.911Z,8.71
2023-09-25T03:27:11.331Z,8.66
2023-09-25T03:29:37.825Z,8.56
2023-09-25T03:32:04.200Z,8.56
2023-09-25T03:34:30.614Z,8.61
2023-09-25T03:36:56.967Z,8.60
2023-09-25T03:39:23.374Z,8.63
2023-09-25T03:41:49.748Z,8.65
2023-09-25T03:44:16.164Z,8.72
2023-09-25T03:46:42.535Z,8.69
2023-09-25T03:49:08.996Z,8.69
2023-09-25T03:51:35.793Z,8.63
2023-09-25T03:54:02.510Z,8.58
2023-09-25T03:56:32.882Z,8.52
2023-09-25T03:58:59.262Z,8.58
2023-09-25T04:01:26.650Z,8.51
2023-09-25T04:03:53.627Z,8.34
2023-09-25T04:06:20.211Z,8.37
2023-09-25T04:08:46.653Z,8.38
2023-09-25T04:11:13.213Z,8.35
2023-09-25T04:13:41.063Z,8.36
2023-09-25T04:16:07.417Z,8.36
2023-09-25T04:18:33.884Z,8.38
2023-09-25T04:21:03.822Z,8.34
2023-09-25T04:23:30.204Z,8.32
2023-09-25T04:26:01.503Z,8.26
2023-09-25T04:28:31.145Z,8.19
2023-09-25T04:31:01.031Z,8.05
2023-09-25T04:33:28.153Z,8.02
2023-09-25T04:35:59.866Z,8.00
2023-09-25T04:38:27.354Z,8.02
2023-09-25T04:40:53.775Z,8.01
2023-09-25T04:43:23.534Z,8.03
2023-09-25T04:45:53.646Z,7.96
2023-09-25T04:48:20.472Z,7.91
2023-09-25T04:50:47.079Z,7.95
2023-09-25T04:53:14.704Z,8.01
2023-09-25T04:55:41.697Z,7.90
2023-09-25T04:58:08.971Z,7.88
2023-09-25T05:00:35.572Z,7.90
2023-09-25T05:03:02.146Z,7.91
2023-09-25T05:05:29.169Z,7.92
2023-09-25T05:07:57.627Z,7.90
2023-09-25T05:10:27.237Z,7.91
2023-09-25T05:12:54.723Z,7.88
2023-09-25T05:15:21.859Z,7.87
2023-09-25T05:17:49.194Z,7.90
2023-09-25T05:20:20.982Z,7.95
2023-09-25T05:22:50.334Z,7.90
2023-09-25T05:25:18.115Z,7.99
2023-09-25T05:27:48.523Z,8.05
2023-09-25T05:30:15.291Z,8.12
2023-09-25T05:32:44.654Z,8.23
2023-09-25T05:35:11.260Z,8.23
2023-09-25T05:37:38.469Z,8.12
2023-09-25T05:40:11.901Z,8.13
2023-09-25T05:42:40.233Z,8.09
2023-09-25T05:45:07.779Z,8.10
2023-09-25T05:47:34.829Z,8.06
2023-09-25T05:50:01.673Z,8.07
2023-09-25T05:52:28.086Z,8.10
2023-09-25T05:54:54.431Z,8.18
2023-09-25T05:57:20.947Z,8.24
2023-09-25T05:59:47.510Z,8.29
2023-09-25T06:02:13.930Z,8.41
2023-09-25T06:04:40.394Z,8.48
2023-09-25T06:07:07.419Z,8.55
2023-09-25T06:09:34.493Z,8.59
2023-09-25T06:12:01.998Z,8.67
2023-09-25T06:14:32.113Z,8.75
2023-09-25T06:17:00.309Z,8.82
2023-09-25T06:19:27.775Z,8.87
2023-09-25T06:21:54.886Z,8.91
2023-09-25T06:24:23.239Z,9.02
2023-09-25T06:26:50.709Z,9.07
2023-09-25T06:29:17.654Z,9.11
2023-09-25T06:31:59.855Z,9.22
2023-09-25T06:34:28.074Z,9.29
2023-09-25T06:36:55.229Z,9.38
2023-09-25T06:39:22.509Z,9.43
2023-09-25T06:41:49.000Z,9.54
2023-09-25T06:44:15.399Z,9.60
2023-09-25T06:46:44.284Z,9.68
2023-09-25T06:49:10.981Z,9.81
2023-09-25T06:51:37.625Z,9.91
2023-09-25T06:54:04.294Z,10.08
2023-09-25T06:56:30.722Z,10.28
2023-09-25T06:58:57.569Z,10.36
2023-09-25T07:01:24.833Z,10.52
2023-09-25T07:03:51.491Z,10.56
2023-09-25T07:06:18.222Z,10.78
2023-09-25T07:08:44.855Z,10.93
2023-09-25T07:11:11.298Z,10.94
2023-09-25T07:13:37.737Z,11.13
2023-09-25T07:16:05.878Z,11.21
2023-09-25T07:18:32.512Z,11.28
2023-09-25T07:20:58.982Z,11.46
2023-09-25T07:23:25.514Z,11.71
2023-09-25T07:26:00.482Z,11.73
2023-09-25T07:28:26.891Z,11.82
2023-09-25T07:30:53.344Z,11.92
2023-09-25T07:33:20.040Z,11.95
2023-09-25T07:35:46.415Z,12.05
2023-09-25T07:38:12.822Z,12.22
2023-09-25T07:40:39.177Z,12.31
2023-09-25T07:43:05.706Z,12.47
2023-09-25T07:45:33.487Z,12.60
2023-09-25T07:48:00.431Z,12.66
2023-09-25T07:50:27.053Z,12.75
2023-09-25T07:52:55.565Z,12.97
2023-09-25T07:55:22.782Z,13.05
2023-09-25T07:57:50.849Z,13.14
2023-09-25T08:00:27.090Z,13.33
2023-09-25T08:02:54.074Z,13.40
2023-09-25T08:05:20.762Z,13.46
2023-09-25T08:07:48.004Z,13.55
2023-09-25T08:10:14.910Z,13.55
2023-09-25T08:12:42.349Z,13.62
2023-09-25T08:15:09.316Z,13.67
2023-09-25T08:17:35.787Z,13.79
2023-09-25T08:20:02.438Z,13.88
2023-09-25T08:22:28.786Z,14.01
2023-09-25T08:24:55.283Z,14.14
2023-09-25T08:27:22.018Z,14.22
2023-09-25T08:29:48.943Z,14.32
2023-09-25T08:32:15.769Z,14.48
2023-09-25T08:34:42.647Z,14.57
2023-09-25T08:37:09.066Z,14.67
2023-09-25T08:39:35.497Z,14.99
2023-09-25T08:42:02.217Z,15.03
2023-09-25T08:44:28.668Z,15.09
2023-09-25T08:46:55.567Z,15.08
2023-09-25T08:49:23.800Z,15.33
2023-09-25T08:51:50.798Z,15.49
2023-09-25T08:54:19.048Z,15.61
2023-09-25T08:56:46.404Z,15.69
2023-09-25T08:59:12.959Z,15.91
2023-09-25T09:01:39.536Z,16.15
2023-09-25T09:04:07.782Z,16.25
2023-09-25T09:06:34.453Z,16.33
2023-09-25T09:09:01.007Z,16.49
2023-09-25T09:11:28.262Z,16.70
2023-09-25T09:13:55.341Z,16.77
2023-09-25T09:16:21.907Z,16.91
2023-09-25T09:18:49.031Z,17.04
2023-09-25T09:21:25.667Z,17.10
2023-09-25T09:23:55.131Z,17.18
2023-09-25T09:26:21.965Z,17.43
2023-09-25T09:28:48.802Z,17.37
2023-09-25T09:31:15.767Z,17.41
2023-09-25T09:33:42.914Z,17.54
2023-09-25T09:36:14.210Z,17.72
2023-09-25T09:38:42.254Z,17.86
2023-09-25T09:41:12.390Z,17.71
2023-09-25T09:43:39.760Z,17.93
2023-09-25T09:46:07.601Z,18.17
2023-09-25T09:48:36.521Z,18.33
2023-09-25T09:51:06.831Z,18.42
2023-09-25T09:53:37.612Z,18.74
2023-09-25T09:56:04.168Z,18.67
2023-09-25T09:58:32.108Z,18.75
2023-09-25T10:01:01.297Z,18.66
2023-09-25T10:03:30.384Z,18.80
2023-09-25T10:05:57.313Z,18.97
2023-09-25T10:08:23.761Z,18.99
2023-09-25T10:10:53.178Z,19.08
2023-09-25T10:13:26.796Z,19.10
2023-09-25T10:15:58.220Z,19.24
2023-09-25T10:18:29.827Z,19.38
2023-09-25T10:21:10.000Z,19.28
2023-09-25T10:23:40.000Z,19.40
2023-09-25T10:26:19.481Z,19.65
2023-09-25T10:28:46.415Z,19.85
2023-09-25T10:31:20.914Z,19.97
2023-09-25T10:34:01.432Z,20.02
2023-09-25T10:36:39.103Z,20.30
2023-09-25T10:39:09.727Z,20.28
2023-09-25T10:41:38.969Z,20.43
2023-09-25T10:44:06.458Z,20.53
2023-09-25T10:46:33.065Z,20.55
2023-09-25T10:48:59.701Z,20.80
2023-09-25T10:51:26.182Z,20.62
2023-09-25T10:53:52.751Z,20.84
2023-09-25T10:56:19.308Z,20.82
2023-09-25T10:58:49.059Z,20.95
2023-09-25T11:01:15.796Z,21.04
2023-09-25T11:03:43.000Z,21.21
2023-09-25T11:06:09.551Z,21.24
2023-09-25T11:08:36.039Z,21.32
2023-09-25T11:11:03.849Z,21.33
2023-09-25T11:13:30.335Z,21.35
2023-09-25T11:15:57.312Z,21.46
2023-09-25T11:18:23.850Z,21.54
2023-09-25T11:20:52.270Z,21.60
2023-09-25T11:23:21.508Z,21.80
2023-09-25T11:25:51.811Z,21.93
2023-09-25T11:28:21.375Z,21.58
2023-09-25T11:30:48.994Z,21.55
2023-09-25T11:33:20.603Z,21.74
2023-09-25T11:35:50.414Z,21.85
2023-09-25T11:38:21.618Z,22.03
2023-09-25T11:40:48.636Z,22.19
2023-09-25T11:43:15.022Z,22.31
2023-09-25T11:45:42.125Z,22.22
2023-09-25T11:48:12.780Z,22.15
2023-09-25T11:50:40.557Z,22.20
2023-09-25T11:53:07.371Z,22.23
2023-09-25T11:55:34.224Z,22.17
2023-09-25T11:58:01.257Z,22.38
2023-09-25T12:00:31.674Z,22.51
2023-09-25T12:02:59.245Z,22.40
2023-09-25T12:05:26.670Z,22.47
2023-09-25T12:07:53.170Z,22.59
2023-09-25T12:10:20.669Z,22.67
2023-09-25T12:12:48.551Z,22.77
2023-09-25T12:15:16.463Z,22.87
2023-09-25T12:17:46.879Z,22.94
2023-09-25T12:20:17.149Z,23.01
2023-09-25T12:22:47.265Z,22.76
2023-09-25T12:25:17.475Z,22.73
2023-09-25T12:27:46.415Z,22.73
2023-09-25T12:30:18.499Z,22.88
2023-09-25T12:32:47.211Z,22.60
2023-09-25T12:35:16.178Z,22.54
2023-09-25T12:37:46.706Z,22.45
2023-09-25T12:40:15.024Z,22.41
2023-09-25T12:42:53.521Z,22.67
2023-09-25T12:45:22.697Z,22.56
2023-09-25T12:47:49.450Z,22.64
2023-09-25T12:50:15.876Z,22.70
2023-09-25T12:52:42.304Z,22.48
2023-09-25T12:55:09.970Z,22.42
2023-09-25T12:57:36.488Z,22.17
2023-09-25T13:00:05.183Z,22.30
2023-09-25T13:02:31.691Z,22.45
2023-09-25T13:04:58.250Z,22.47
2023-09-25T13:07:24.896Z,22.27
2023-09-25T13:09:51.304Z,22.16
2023-09-25T13:12:17.971Z,22.22
2023-09-25T13:14:44.411Z,22.33
2023-09-25T13:17:11.479Z,22.16
2023-09-25T13:19:40.786Z,22.24
2023-09-25T13:22:20.590Z,22.16
2023-09-25T13:24:55.739Z,22.13
2023-09-25T13:27:22.248Z,22.12
2023-09-25T13:29:48.777Z,22.02
2023-09-25T13:32:15.192Z,22.06
2023-09-25T13:34:43.086Z,22.06
2023-09-25T13:37:09.425Z,21.91
2023-09-25T13:39:35.908Z,22.02
2023-09-25T13:42:02.282Z,21.92
2023-09-25T13:44:28.704Z,22.00
2023-09-25T13:46:56.167Z,22.11
2023-09-25T13:51:49.745Z,22.07
2023-09-25T13:54:16.153Z,22.27
2023-09-25T13:56:42.588Z,21.89
2023-09-25T13:59:08.966Z,21.94
2023-09-25T14:01:36.731Z,21.92
2023-09-25T14:04:03.461Z,21.88
2023-09-25T14:06:31.485Z,21.91
2023-09-25T14:08:57.892Z,21.76
2023-09-25T14:11:24.424Z,21.72
2023-09-25T14:13:51.207Z,21.76
2023-09-25T14:16:18.129Z,21.84
2023-09-25T14:18:44.673Z,21.71
2023-09-25T14:21:12.355Z,21.71
2023-09-25T14:23:40.300Z,21.59
2023-09-25T14:26:06.699Z,21.60
2023-09-25T14:28:33.062Z,21.64
2023-09-25T14:30:59.520Z,21.68
2023-09-25T14:33:26.069Z,21.67
2023-09-25T14:35:52.497Z,21.66
2023-09-25T14:38:18.883Z,21.66
2023-09-25T14:40:46.017Z,21.66
2023-09-25T14:43:12.511Z,21.74
2023-09-25T14:45:39.113Z,21.81
2023-09-25T14:48:05.980Z,21.72
2023-09-25T14:50:32.474Z,21.68
2023-09-25T14:52:59.361Z,21.62
2023-09-25T14:55:25.762Z,21.60
2023-09-25T14:57:52.328Z,21.61
2023-09-25T15:00:19.640Z,21.58
2023-09-25T15:02:46.154Z,21.54
2023-09-25T15:05:12.747Z,21.57
2023-09-25T15:07:39.229Z,21.57
2023-09-25T15:10:06.621Z,21.53
2023-09-25T15:12:33.099Z,21.57
2023-09-25T15:14:59.974Z,21.57
2023-09-25T15:17:29.133Z,21.53
2023-09-25T15:19:57.594Z,21.53
2023-09-25T15:22:26.764Z,21.48
2023-09-25T15:24:54.739Z,21.48
2023-09-25T15:27:21.684Z,21.46
2023-09-25T15:29:51.732Z,21.43
2023-09-25T15:32:18.231Z,21.47
2023-09-25T15:34:44.903Z,21.40
2023-09-25T15:37:11.457Z,21.39
2023-09-25T15:39:38.546Z,21.38
2023-09-25T15:42:05.128Z,21.38
2023-09-25T15:44:31.682Z,21.39
2023-09-25T15:46:58.242Z,21.36
2023-09-25T15:49:24.704Z,21.38
2023-09-25T15:51:51.148Z,21.38
2023-09-25T15:54:17.519Z,21.33
2023-09-25T15:56:43.951Z,21.33
2023-09-25T15:59:11.290Z,21.31
2023-09-25T16:01:37.949Z,21.29
2023-09-25T16:04:04.781Z,21.29
2023-09-25T16:06:31.272Z,21.22
2023-09-25T16:08:57.628Z,21.15
2023-09-25T16:11:24.005Z,21.05
2023-09-25T16:13:50.502Z,20.97
2023-09-25T16:16:17.112Z,20.85
2023-09-25T16:18:43.547Z,20.88
2023-09-25T16:21:10.246Z,20.80
2023-09-25T16:23:36.570Z,20.59
2023-09-25T16:26:02.936Z,20.52
2023-09-25T16:28:29.341Z,20.49
2023-09-25T16:30:55.748Z,20.44
2023-09-25T16:33:22.122Z,20.38
2023-09-25T16:35:48.542Z,20.35
2023-09-25T16:38:15.008Z,20.29
2023-09-25T16:40:41.584Z,20.23
2023-09-25T16:43:08.391Z,20.16
2023-09-25T16:45:39.295Z,20.00
2023-09-25T16:48:06.625Z,19.94
2023-09-25T16:50:35.316Z,19.91
2023-09-25T16:53:01.835Z,19.78
2023-09-25T16:55:28.228Z,19.75
2023-09-25T16:57:54.622Z,19.66
2023-09-25T17:00:21.306Z,19.53
2023-09-25T17:02:47.718Z,19.48
2023-09-25T17:05:14.281Z,19.35
2023-09-25T17:07:40.745Z,19.27
2023-09-25T17:10:07.658Z,19.20
2023-09-25T17:12:34.179Z,19.09
2023-09-25T17:15:00.656Z,19.04
2023-09-25T17:17:27.276Z,18.91
2023-09-25T17:19:54.874Z,18.84
2023-09-25T17:22:21.752Z,18.71
2023-09-25T17:24:48.217Z,18.67
2023-09-25T17:27:17.320Z,18.63
2023-09-25T17:29:45.373Z,18.54
2023-09-25T17:32:12.100Z,18.48
2023-09-25T17:34:39.167Z,18.40
2023-09-25T17:37:07.007Z,18.43
2023-09-25T17:39:33.549Z,18.36
2023-09-25T17:42:00.036Z,18.21
2023-09-25T17:44:26.622Z,18.08
2023-09-25T17:46:53.350Z,18.01
2023-09-25T17:49:20.196Z,17.99
2023-09-25T17:51:46.889Z,17.82
2023-09-25T17:54:13.428Z,17.75
2023-09-25T17:56:40.672Z,17.62
2023-09-25T17:59:07.225Z,17.53
2023-09-25T18:01:34.358Z,17.48
2023-09-25T18:04:01.081Z,17.37
2023-09-25T18:06:27.582Z,17.35
2023-09-25T18:08:54.437Z,17.24
2023-09-25T18:11:20.830Z,17.16
2023-09-25T18:13:47.231Z,17.04
2023-09-25T18:16:13.713Z,16.97
2023-09-25T18:18:40.249Z,16.87
2023-09-25T18:21:06.787Z,16.81
2023-09-25T18:23:34.553Z,16.76
2023-09-25T18:26:02.530Z,16.69
2023-09-25T18:28:30.067Z,16.63
2023-09-25T18:30:59.760Z,16.55
2023-09-25T18:33:26.417Z,16.50
2023-09-25T18:35:52.768Z,16.47
2023-09-25T18:38:19.138Z,16.39
2023-09-25T18:40:45.493Z,16.32
2023-09-25T18:43:11.957Z,16.27
2023-09-25T18:45:38.971Z,16.25
2023-09-25T18:48:05.818Z,16.16
2023-09-25T18:50:32.588Z,16.17
2023-09-25T18:52:59.018Z,16.04
2023-09-25T18:55:25.584Z,15.98
2023-09-25T18:57:52.062Z,15.92
2023-09-25T19:00:18.681Z,15.87
2023-09-25T19:02:45.135Z,15.81
2023-09-25T19:05:11.614Z,15.76
2023-09-25T19:07:38.158Z,15.72
2023-09-25T19:10:05.405Z,15.66
2023-09-25T19:12:31.881Z,15.61
2023-09-25T19:14:58.467Z,15.67
2023-09-25T19:17:25.868Z,15.63
2023-09-25T19:19:52.621Z,15.54
2023-09-25T19:22:19.043Z,15.48
2023-09-25T19:24:45.541Z,15.43
2023-09-25T19:27:12.084Z,15.29
2023-09-25T19:29:38.408Z,15.22
2023-09-25T19:32:05.066Z,15.26
2023-09-25T19:34:31.670Z,15.23
2023-09-25T19:36:58.322Z,15.20
2023-09-25T19:39:24.897Z,15.15
2023-09-25T19:41:51.283Z,15.12
2023-09-25T19:44:17.797Z,15.08
2023-09-25T19:46:44.555Z,14.99
2023-09-25T19:49:11.213Z,14.87
2023-09-25T19:51:39.588Z,14.81
2023-09-25T19:54:07.649Z,14.72
2023-09-25T19:56:34.131Z,14.61
2023-09-25T19:59:00.576Z,14.57
2023-09-25T20:01:27.281Z,14.54
2023-09-25T20:03:53.936Z,14.45
2023-09-25T20:06:20.504Z,14.38
2023-09-25T20:08:46.958Z,14.37
2023-09-25T20:11:13.435Z,14.39
2023-09-25T20:13:39.904Z,14.40
2023-09-25T20:16:06.489Z,14.34
2023-09-25T20:18:33.194Z,14.29
2023-09-25T20:20:59.718Z,14.26
2023-09-25T20:23:27.136Z,14.27
2023-09-25T20:25:54.173Z,14.21
2023-09-25T20:28:20.848Z,14.20
2023-09-25T20:30:47.287Z,14.15
2023-09-25T20:33:13.686Z,14.09
2023-09-25T20:35:40.317Z,13.99
2023-09-25T20:38:06.774Z,14.00
2023-09-25T20:40:33.196Z,13.92
2023-09-25T20:42:59.726Z,13.82
2023-09-25T20:45:27.036Z,13.79
2023-09-25T20:47:55.547Z,13.76
2023-09-25T20:50:26.600Z,13.72
2023-09-25T20:52:57.086Z,13.62
2023-09-25T20:55:23.954Z,13.59
2023-09-25T20:57:50.999Z,13.57
2023-09-25T21:00:17.894Z,13.52
2023-09-25T21:02:44.409Z,13.50
2023-09-25T21:05:11.306Z,13.47
2023-09-25T21:07:38.198Z,13.41
2023-09-25T21:10:05.057Z,13.40
2023-09-25T21:12:31.600Z,13.35
2023-09-25T21:14:58.142Z,13.37
2023-09-25T21:17:24.741Z,13.35
2023-09-25T21:19:51.119Z,13.33
2023-09-25T21:22:17.555Z,13.29
2023-09-25T21:24:43.963Z,13.26
2023-09-25T21:27:10.358Z,13.20
2023-09-25T21:29:37.911Z,13.21
2023-09-25T21:32:04.826Z,13.15
2023-09-25T21:34:32.117Z,13.05
2023-09-25T21:36:58.517Z,13.06
2023-09-25T21:39:24.980Z,12.95
2023-09-25T21:41:51.420Z,12.97
2023-09-25T21:44:17.803Z,12.96
2023-09-25T21:46:44.485Z,13.01
2023-09-25T21:49:11.062Z,12.89
2023-09-25T21:51:37.694Z,12.96
2023-09-25T21:54:06.141Z,12.88
2023-09-25T21:56:32.732Z,12.86
2023-09-25T21:58:59.084Z,12.88
2023-09-25T22:01:25.616Z,12.83
2023-09-25T22:03:52.483Z,12.83
2023-09-25T22:06:19.206Z,12.79
2023-09-25T22:08:45.554Z,12.79
2023-09-25T22:11:12.011Z,12.78
2023-09-25T22:13:38.492Z,12.73
2023-09-25T22:16:08.952Z,12.62
2023-09-25T22:18:36.056Z,12.59
2023-09-25T22:21:03.289Z,12.51
2023-09-25T22:23:29.796Z,12.46
2023-09-25T22:25:56.380Z,12.48
2023-09-25T22:28:23.519Z,12.38
2023-09-25T22:30:49.999Z,12.34
2023-09-25T22:33:16.400Z,12.33
2023-09-25T22:35:42.994Z,12.34
2023-09-25T22:38:11.994Z,12.31
2023-09-25T22:40:42.045Z,12.30
2023-09-25T22:43:09.496Z,12.23
2023-09-25T22:45:36.552Z,12.32
2023-09-25T22:48:03.818Z,12.27
2023-09-25T22:50:31.682Z,12.18
2023-09-25T22:52:58.198Z,12.16
2023-09-25T22:55:25.283Z,12.18
2023-09-25T22:57:52.012Z,12.14
2023-09-25T23:00:18.580Z,12.08
2023-09-25T23:02:48.092Z,12.07
2023-09-25T23:05:15.562Z,12.10
2023-09-25T23:07:45.608Z,12.04
2023-09-25T23:10:13.070Z,12.00
2023-09-25T23:12:39.899Z,11.91
2023-09-25T23:15:09.443Z,11.88
2023-09-25T23:17:35.824Z,11.81
2023-09-25T23:20:02.267Z,11.78
2023-09-25T23:22:29.744Z,11.77
2023-09-25T23:24:56.146Z,11.82
2023-09-25T23:27:22.758Z,11.79
2023-09-25T23:29:49.249Z,11.75
2023-09-25T23:32:15.669Z,11.74
2023-09-25T23:34:42.028Z,11.79
2023-09-25T23:37:09.249Z,11.77
2023-09-25T23:39:35.654Z,11.73
2023-09-25T23:42:02.124Z,11.65
2023-09-25T23:44:28.594Z,11.58
2023-09-25T23:46:55.226Z,11.55
2023-09-25T23:49:21.773Z,11.47
2023-09-25T23:51:48.273Z,11.38
2023-09-25T23:54:15.071Z,11.35
2023-09-25T23:56:41.556Z,11.35
2023-09-25T23:59:08.005Z,11.40
